Latest Coastal Weather Observations for Aireys Inlet

IDV60701

Issued at 10:51 am EDT Thursday 23 November 2017 (issued every 10 minutes, with the page automatically refreshed every 10 minutes)

About coastal observations | Map of coastal stations | Coastal observations for VIC | Marine services | Other Formats
Station Details ID: 090180 Name: AIREYS INLET Lat: -38.46 Lon: 144.09 Height: 105.0 m
Data from the previous 72 hours. | See also: Recent months at Aireys Inlet
Date/Time
EDT
Temp
°C
Wind Pressure Rain since
9am
mm
Weather Cloud Vis
km
Sea
Height
m
Swell
Dir  Spd
kts
Gust
kts
hPa Trend Height
m
Period
s
Dir
23/10:30am 20.4 ESE 4 6 - - 0.0 - - - - - - -
23/10:00am 19.8 SE 4 6 - - 0.0 - - - - - - -
23/09:30am 19.9 SSE 2 4 - - 0.0 - - - - - - -
23/09:00am 18.6 SSW 4 7 - - 0.0 - - - - - - -
23/08:30am 17.9 SSW 3 6 - - 0.0 - - - - - - -
23/08:00am 17.5 SSW 2 5 - - 0.0 - - - - - - -
23/07:30am 17.1 S 2 4 - - 0.0 - - - - - - -
23/07:00am 16.8 S 1 3 - - 0.0 - - - - - - -
23/06:30am 16.5 SW 3 4 - - 0.0 - - - - - - -
23/06:00am 16.4 SSW 3 6 - - 0.0 - - - - - - -
23/05:30am 16.4 SSW 3 5 - - 0.0 - - - - - - -
23/05:00am 16.4 SW 5 7 - - 0.0 - - - - - - -
23/04:30am 16.5 SSW 4 6 - - 0.0 - - - - - - -
23/04:00am 16.5 SW 3 5 - - 0.0 - - - - - - -
23/03:30am 16.5 SSW 3 4 - - 0.0 - - - - - - -
23/03:00am 16.5 SSW 4 6 - - 0.0 - - - - - - -
23/02:30am 16.6 SSW 3 6 - - 0.0 - - - - - - -
23/02:00am 16.2 SSW 4 6 - - 0.0 - - - - - - -
23/01:30am 16.3 SSW 4 5 - - 0.0 - - - - - - -
23/01:00am 16.4 S 3 4 - - 0.0 - - - - - - -
23/12:30am 15.9 SSW 4 6 - - 0.0 - - - - - - -
23/12:00am 16.1 SSW 4 6 - - 0.0 - - - - - - -
 
Date/Time
EDT
Temp
°C
Wind Pressure Rain since
9am
mm
Weather Cloud Vis
km
Sea
Height
m
Swell
Dir  Spd
kts
Gust
kts
hPa Trend Height
m
Period
s
Dir
22/11:30pm 16.5 SSW 5 7 - - 0.0 - - - - - - -
22/11:00pm 16.5 SSW 5 7 - - 0.0 - - - - - - -
22/10:30pm 16.7 SSW 5 7 - - 0.0 - - - - - - -
22/10:00pm 16.8 SW 5 7 - - 0.0 - - - - - - -
22/09:30pm 17.1 SW 5 8 - - 0.0 - - - - - - -
22/09:00pm 17.6 SW 5 7 - - 0.0 - - - - - - -
22/08:30pm 18.3 SSW 5 7 - - 0.0 - - - - - - -
22/08:00pm 19.8 SSW 4 5 - - 0.0 - - - - - - -
22/07:30pm 21.5 SSW 4 5 - - 0.0 - - - - - - -
22/07:00pm 22.2 SSW 4 6 - - 0.0 - - - - - - -
22/06:30pm 22.2 SSW 4 7 - - 0.0 - - - - - - -
22/06:00pm 22.4 S 4 6 - - 0.0 - - - - - - -
22/05:30pm 22.4 S 5 8 - - 0.0 - - - - - - -
22/05:00pm 22.8 S 4 6 - - 0.0 - - - - - - -
22/04:30pm 23.2 S 4 7 - - 0.0 - - - - - - -
22/04:00pm 24.6 S 3 5 - - 0.0 - - - - - - -
22/03:30pm 24.3 S 4 8 - - 0.0 - - - - - - -
22/03:00pm 24.4 SSW 4 7 - - 0.0 - - - - - - -
22/02:30pm 23.0 SSE 3 6 - - 0.0 - - - - - - -
22/02:00pm 23.7 SSE 3 6 - - 0.0 - - - - - - -
22/01:30pm 22.9 SSE 3 5 - - 0.0 - - - - - - -
22/01:00pm 24.1 ESE 4 7 - - 0.0 - - - - - - -
22/12:30pm 24.1 E 6 9 - - 0.0 - - - - - - -
22/12:00pm 24.4 E 5 8 - - 0.0 - - - - - - -
22/11:30am 23.8 ESE 6 10 - - 0.0 - - - - - - -
22/11:00am 24.8 E 6 8 - - 0.0 - - - - - - -
22/10:30am 24.4 E 7 9 - - 0.0 - - - - - - -
22/10:00am 24.3 E 8 11 - - 0.0 - - - - - - -
22/09:30am 27.8 NNE 7 10 - - 0.0 - - - - - - -
22/09:00am 26.4 NNE 5 8 - - 0.0 - - - - - - -
22/08:30am 25.0 NNE 5 7 - - 0.0 - - - - - - -
22/08:00am 23.4 N 8 11 - - 0.0 - - - - - - -
22/07:30am 21.9 N 5 6 - - 0.0 - - - - - - -
22/07:00am 21.8 N 3 5 - - 0.0 - - - - - - -
22/06:30am 20.6 NNW 4 6 - - 0.0 - - - - - - -
22/06:00am 17.9 N 4 5 - - 0.0 - - - - - - -
22/05:30am 18.6 NNE 4 5 - - 0.0 - - - - - - -
22/05:00am 19.8 NNE 4 6 - - 0.0 - - - - - - -
22/04:30am 19.8 N 2 3 - - 0.0 - - - - - - -
22/04:00am 18.9 NNE 4 5 - - 0.0 - - - - - - -
22/03:30am 18.3 N 2 3 - - 0.0 - - - - - - -
22/03:00am 18.5 N 4 5 - - 0.0 - - - - - - -
22/02:30am 19.1 N 5 6 - - 0.0 - - - - - - -
22/02:00am 19.3 NNW 5 6 - - 0.0 - - - - - - -
22/01:30am 18.9 NNW 4 5 - - 0.0 - - - - - - -
22/01:00am 19.5 NNW 4 5 - - 0.0 - - - - - - -
22/12:30am 18.9 NW 3 6 - - 0.0 - - - - - - -
22/12:00am 19.5 WNW 2 3 - - 0.0 - - - - - - -
 
Date/Time
EDT
Temp
°C
Wind Pressure Rain since
9am
mm
Weather Cloud Vis
km
Sea
Height
m
Swell
Dir  Spd
kts
Gust
kts
hPa Trend Height
m
Period
s
Dir
21/11:30pm 19.1 NW 4 7 - - 0.0 - - - - - - -
21/11:00pm 19.6 W 4 5 - - 0.0 - - - - - - -
21/10:30pm 19.7 WSW 3 5 - - 0.0 - - - - - - -
21/10:00pm 19.8 W 3 4 - - 0.0 - - - - - - -
21/09:30pm 19.6 WSW 3 5 - - 0.0 - - - - - - -
21/09:00pm 19.6 WNW 2 2 - - 0.0 - - - - - - -
21/08:30pm 20.0 WSW 1 3 - - 0.0 - - - - - - -
21/08:00pm 21.2 SW 2 3 - - 0.0 - - - - - - -
21/07:30pm 23.1 SSW 2 3 - - 0.0 - - - - - - -
21/07:00pm 23.2 S 3 4 - - 0.0 - - - - - - -
21/06:30pm 24.3 S 3 5 - - 0.0 - - - - - - -
21/06:00pm 24.3 S 3 6 - - 0.0 - - - - - - -
21/05:30pm 25.1 SSW 4 6 - - 0.0 - - - - - - -
21/05:00pm 24.0 SE 3 5 - - 0.0 - - - - - - -
21/04:30pm 23.6 ESE 3 7 - - 0.0 - - - - - - -
21/04:00pm 23.0 ESE 7 12 - - 0.0 - - - - - - -
21/03:30pm 23.9 ESE 6 9 - - 0.0 - - - - - - -
21/03:00pm 25.2 SE 4 8 - - 0.0 - - - - - - -
21/02:30pm 26.1 E 6 8 - - 0.0 - - - - - - -
21/02:00pm 26.2 E 5 9 - - 0.0 - - - - - - -
21/01:30pm 24.9 E 5 8 - - 0.0 - - - - - - -
21/01:00pm 23.6 E 7 10 - - 0.0 - - - - - - -
21/12:30pm 25.2 E 5 8 - - 0.0 - - - - - - -
21/12:00pm 24.2 E 5 8 - - 0.0 - - - - - - -
21/11:30am 23.9 E 3 5 - - 0.0 - - - - - - -
21/11:00am 24.1 E 4 5 - - 0.0 - - - - - - -
21/10:30am 26.2 ESE 3 6 - - 0.0 - - - - - - -
21/10:00am 25.9 SE 3 4 - - 0.0 - - - - - - -
21/09:30am 25.2 N 2 5 - - 0.0 - - - - - - -
21/09:00am 22.9 NNE 2 4 - - 0.0 - - - - - - -
21/08:30am 20.8 NE 2 5 - - 0.0 - - - - - - -
21/08:00am 18.8 NNW 1 1 - - 0.0 - - - - - - -
21/07:30am 17.3 NNW 2 3 - - 0.0 - - - - - - -
21/07:00am 16.5 NNW 4 6 - - 0.0 - - - - - - -
21/06:30am 15.8 NNW 4 5 - - 0.0 - - - - - - -
21/06:00am 16.3 CALM 0 0 - - 0.0 - - - - - - -
21/05:30am 17.2 CALM 0 0 - - 0.0 - - - - - - -
21/05:00am 16.2 NNW 2 3 - - 0.0 - - - - - - -
21/04:30am 16.4 CALM 0 0 - - 0.0 - - - - - - -
21/04:00am 16.4 CALM 0 1 - - 0.0 - - - - - - -
21/03:30am 16.4 NW 2 3 - - 0.0 - - - - - - -
21/03:00am 16.6 W 1 3 - - 0.0 - - - - - - -
21/02:30am 17.4 WSW 3 5 - - 0.0 - - - - - - -
21/02:00am 17.2 SW 3 4 - - 0.0 - - - - - - -
21/01:30am 17.9 SSW 3 3 - - 0.0 - - - - - - -
21/01:00am 18.0 SW 1 3 - - 0.0 - - - - - - -
21/12:30am 18.0 WSW 2 3 - - 0.0 - - - - - - -
21/12:00am 17.9 SW 4 5 - - 0.0 - - - - - - -
 
Date/Time
EDT
Temp
°C
Wind Pressure Rain since
9am
mm
Weather Cloud Vis
km
Sea
Height
m
Swell
Dir  Spd
kts
Gust
kts
hPa Trend Height
m
Period
s
Dir
20/11:30pm 18.0 SW 4 5 - - 0.0 - - - - - - -
20/11:00pm 18.1 SW 4 5 - - 0.0 - - - - - - -
20/10:30pm 18.1 WSW 4 5 - - 0.0 - - - - - - -
20/10:00pm 18.0 WSW 4 5 - - 0.0 - - - - - - -
20/09:30pm 18.3 SW 4 5 - - 0.0 - - - - - - -
20/09:00pm 18.6 SSW 3 4 - - 0.0 - - - - - - -
20/08:30pm 19.2 SW 3 5 - - 0.0 - - - - - - -
20/08:00pm 20.4 SSW 3 5 - - 0.0 - - - - - - -
20/07:30pm 21.6 S 5 8 - - 0.0 - - - - - - -
20/07:00pm 23.8 SSW 4 7 - - 0.0 - - - - - - -
20/06:30pm 24.6 SSW 4 7 - - 0.0 - - - - - - -
20/06:00pm 24.8 SSW 5 7 - - 0.0 - - - - - - -
20/05:30pm 25.1 SW 5 7 - - 0.0 - - - - - - -
20/05:00pm 25.3 SW 5 7 - - 0.0 - - - - - - -
20/04:30pm 25.3 SSW 5 6 - - 0.0 - - - - - - -
20/04:00pm 25.8 SSW 5 8 - - 0.0 - - - - - - -
20/03:30pm 25.9 S 3 6 - - 0.0 - - - - - - -
20/03:00pm 25.8 ESE 5 7 - - 0.0 - - - - - - -
20/02:30pm 26.6 E 5 9 - - 0.0 - - - - - - -
20/02:00pm 26.5 E 5 7 - - 0.0 - - - - - - -
20/01:30pm 26.1 E 7 10 - - 0.0 - - - - - - -
20/01:00pm 25.0 E 8 11 - - 0.0 - - - - - - -
20/12:30pm 24.3 E 8 10 - - 0.0 - - - - - - -
20/12:00pm 25.0 E 6 9 - - 0.0 - - - - - - -
20/11:30am 25.2 ESE 5 7 - - 0.0 - - - - - - -
20/11:00am 25.3 ESE 3 4 - - 0.0 - - - - - - -

Other Formats:

Comma delimited format used in spreadsheet applications
http://www.bom.gov.au/fwo/IDV60701/IDV60701.94846.axf

JavaScript Object Notation format (JSON) in row-major order
http://www.bom.gov.au/fwo/IDV60701/IDV60701.94846.json